sensor_id;sensor_type;location;lat;lon;timestamp;temperature;humidity
610;DHT22;292;48.800;9.216;2022-08-03T00:00:54;28.30;46.60
610;DHT22;292;48.800;9.216;2022-08-03T00:03:21;28.30;46.60
610;DHT22;292;48.800;9.216;2022-08-03T00:05:48;28.30;46.60
610;DHT22;292;48.800;9.216;2022-08-03T00:08:17;28.30;46.60
610;DHT22;292;48.800;9.216;2022-08-03T00:10:45;28.30;46.60
610;DHT22;292;48.800;9.216;2022-08-03T00:13:12;28.30;46.60
610;DHT22;292;48.800;9.216;2022-08-03T00:15:39;28.30;46.60
610;DHT22;292;48.800;9.216;2022-08-03T00:18:06;28.30;46.80
610;DHT22;292;48.800;9.216;2022-08-03T00:20:33;28.30;46.80
610;DHT22;292;48.800;9.216;2022-08-03T00:23:00;28.30;46.80
610;DHT22;292;48.800;9.216;2022-08-03T00:25:29;28.30;46.80
610;DHT22;292;48.800;9.216;2022-08-03T00:27:56;28.30;46.90
610;DHT22;292;48.800;9.216;2022-08-03T00:30:23;28.30;46.90
610;DHT22;292;48.800;9.216;2022-08-03T00:32:50;28.30;46.90
610;DHT22;292;48.800;9.216;2022-08-03T00:35:18;28.30;46.90
610;DHT22;292;48.800;9.216;2022-08-03T00:37:45;28.30;46.90
610;DHT22;292;48.800;9.216;2022-08-03T00:40:13;28.30;47.20
610;DHT22;292;48.800;9.216;2022-08-03T00:42:49;28.30;47.20
610;DHT22;292;48.800;9.216;2022-08-03T00:45:18;28.30;47.00
610;DHT22;292;48.800;9.216;2022-08-03T00:47:45;28.30;47.20
610;DHT22;292;48.800;9.216;2022-08-03T00:50:12;28.30;47.20
610;DHT22;292;48.800;9.216;2022-08-03T00:52:39;28.30;47.20
610;DHT22;292;48.800;9.216;2022-08-03T00:55:06;28.30;47.30
610;DHT22;292;48.800;9.216;2022-08-03T00:57:33;28.30;47.30
610;DHT22;292;48.800;9.216;2022-08-03T01:00:02;28.30;47.30
610;DHT22;292;48.800;9.216;2022-08-03T01:02:30;28.30;47.30
610;DHT22;292;48.800;9.216;2022-08-03T01:04:57;28.30;47.40
610;DHT22;292;48.800;9.216;2022-08-03T01:07:26;28.30;47.40
610;DHT22;292;48.800;9.216;2022-08-03T01:09:58;28.30;47.40
610;DHT22;292;48.800;9.216;2022-08-03T01:12:28;28.30;47.40
610;DHT22;292;48.800;9.216;2022-08-03T01:14:57;28.30;47.40
610;DHT22;292;48.800;9.216;2022-08-03T01:17:31;28.30;47.40
610;DHT22;292;48.800;9.216;2022-08-03T01:20:02;28.30;47.30
610;DHT22;292;48.800;9.216;2022-08-03T01:22:43;28.30;47.60
610;DHT22;292;48.800;9.216;2022-08-03T01:25:13;28.30;47.60
610;DHT22;292;48.800;9.216;2022-08-03T01:27:50;28.30;47.60
610;DHT22;292;48.800;9.216;2022-08-03T01:30:20;28.30;47.60
610;DHT22;292;48.800;9.216;2022-08-03T01:32:50;28.30;47.60
610;DHT22;292;48.800;9.216;2022-08-03T01:35:19;28.30;47.70
610;DHT22;292;48.800;9.216;2022-08-03T01:37:49;28.30;47.70
610;DHT22;292;48.800;9.216;2022-08-03T01:40:18;28.30;47.70
610;DHT22;292;48.800;9.216;2022-08-03T01:42:46;28.30;47.70
610;DHT22;292;48.800;9.216;2022-08-03T01:45:14;28.30;47.70
610;DHT22;292;48.800;9.216;2022-08-03T01:47:44;28.30;47.80
610;DHT22;292;48.800;9.216;2022-08-03T01:50:11;28.30;47.80
610;DHT22;292;48.800;9.216;2022-08-03T01:52:39;28.30;47.80
610;DHT22;292;48.800;9.216;2022-08-03T01:55:07;28.30;47.80
610;DHT22;292;48.800;9.216;2022-08-03T01:57:35;28.30;47.80
610;DHT22;292;48.800;9.216;2022-08-03T02:00:04;28.30;48.00
610;DHT22;292;48.800;9.216;2022-08-03T02:02:33;28.30;48.00
610;DHT22;292;48.800;9.216;2022-08-03T02:05:04;28.30;48.00
610;DHT22;292;48.800;9.216;2022-08-03T02:07:32;28.30;48.00
610;DHT22;292;48.800;9.216;2022-08-03T02:10:00;28.30;48.00
610;DHT22;292;48.800;9.216;2022-08-03T02:12:29;28.30;48.00
610;DHT22;292;48.800;9.216;2022-08-03T02:14:57;28.30;48.00
610;DHT22;292;48.800;9.216;2022-08-03T02:17:25;28.30;48.10
610;DHT22;292;48.800;9.216;2022-08-03T02:19:52;28.30;48.10
610;DHT22;292;48.800;9.216;2022-08-03T02:22:21;28.30;48.10
610;DHT22;292;48.800;9.216;2022-08-03T02:24:49;28.30;48.10
610;DHT22;292;48.800;9.216;2022-08-03T02:27:17;28.30;48.10
610;DHT22;292;48.800;9.216;2022-08-03T02:29:45;28.30;48.10
610;DHT22;292;48.800;9.216;2022-08-03T02:32:16;28.30;48.10
610;DHT22;292;48.800;9.216;2022-08-03T02:34:45;28.30;48.20
610;DHT22;292;48.800;9.216;2022-08-03T02:37:13;28.30;48.20
610;DHT22;292;48.800;9.216;2022-08-03T02:39:41;28.30;48.20
610;DHT22;292;48.800;9.216;2022-08-03T02:42:09;28.30;48.20
610;DHT22;292;48.800;9.216;2022-08-03T02:44:37;28.30;48.20
610;DHT22;292;48.800;9.216;2022-08-03T02:47:06;28.30;48.20
610;DHT22;292;48.800;9.216;2022-08-03T02:49:34;28.30;48.20
610;DHT22;292;48.800;9.216;2022-08-03T02:52:02;28.30;48.40
610;DHT22;292;48.800;9.216;2022-08-03T02:54:30;28.30;48.40
610;DHT22;292;48.800;9.216;2022-08-03T02:56:59;28.30;48.40
610;DHT22;292;48.800;9.216;2022-08-03T02:59:27;28.30;48.40
610;DHT22;292;48.800;9.216;2022-08-03T03:01:55;28.30;48.40
610;DHT22;292;48.800;9.216;2022-08-03T03:04:22;28.30;48.40
610;DHT22;292;48.800;9.216;2022-08-03T03:06:50;28.30;48.40
610;DHT22;292;48.800;9.216;2022-08-03T03:09:18;28.30;48.40
610;DHT22;292;48.800;9.216;2022-08-03T03:11:45;28.30;48.40
610;DHT22;292;48.800;9.216;2022-08-03T03:14:14;28.30;48.40
610;DHT22;292;48.800;9.216;2022-08-03T03:16:41;28.30;48.40
610;DHT22;292;48.800;9.216;2022-08-03T03:19:08;28.30;48.40
610;DHT22;292;48.800;9.216;2022-08-03T03:21:37;28.30;48.40
610;DHT22;292;48.800;9.216;2022-08-03T03:24:04;28.30;48.40
610;DHT22;292;48.800;9.216;2022-08-03T03:26:32;28.30;48.40
610;DHT22;292;48.800;9.216;2022-08-03T03:31:28;28.30;48.50
610;DHT22;292;48.800;9.216;2022-08-03T03:33:55;28.30;48.50
610;DHT22;292;48.800;9.216;2022-08-03T03:36:23;28.30;48.50
610;DHT22;292;48.800;9.216;2022-08-03T03:38:50;28.30;48.50
610;DHT22;292;48.800;9.216;2022-08-03T03:41:17;28.30;48.50
610;DHT22;292;48.800;9.216;2022-08-03T03:43:44;28.30;48.50
610;DHT22;292;48.800;9.216;2022-08-03T03:46:12;28.30;48.50
610;DHT22;292;48.800;9.216;2022-08-03T03:48:40;28.30;48.50
610;DHT22;292;48.800;9.216;2022-08-03T03:51:07;28.30;48.50
610;DHT22;292;48.800;9.216;2022-08-03T03:53:34;28.30;48.50
610;DHT22;292;48.800;9.216;2022-08-03T03:56:01;28.30;48.50
610;DHT22;292;48.800;9.216;2022-08-03T03:58:29;28.30;48.50
610;DHT22;292;48.800;9.216;2022-08-03T04:00:56;28.30;48.50
610;DHT22;292;48.800;9.216;2022-08-03T04:03:23;28.30;48.50
610;DHT22;292;48.800;9.216;2022-08-03T04:05:52;28.30;48.50
610;DHT22;292;48.800;9.216;2022-08-03T04:08:36;28.20;48.50
610;DHT22;292;48.800;9.216;2022-08-03T04:11:21;28.30;48.50
610;DHT22;292;48.800;9.216;2022-08-03T04:13:52;28.20;48.50
610;DHT22;292;48.800;9.216;2022-08-03T04:16:21;28.20;48.50
610;DHT22;292;48.800;9.216;2022-08-03T04:18:51;28.20;48.50
610;DHT22;292;48.800;9.216;2022-08-03T04:21:20;28.20;48.50
610;DHT22;292;48.800;9.216;2022-08-03T04:23:50;28.20;48.50
610;DHT22;292;48.800;9.216;2022-08-03T04:26:19;28.20;48.50
610;DHT22;292;48.800;9.216;2022-08-03T04:28:47;28.20;48.50
610;DHT22;292;48.800;9.216;2022-08-03T04:31:16;28.20;48.50
610;DHT22;292;48.800;9.216;2022-08-03T04:33:43;28.20;48.50
610;DHT22;292;48.800;9.216;2022-08-03T04:36:11;28.20;48.50
610;DHT22;292;48.800;9.216;2022-08-03T04:38:43;28.20;48.50
610;DHT22;292;48.800;9.216;2022-08-03T04:41:11;28.20;48.50
610;DHT22;292;48.800;9.216;2022-08-03T04:43:38;28.20;48.50
610;DHT22;292;48.800;9.216;2022-08-03T04:46:06;28.20;48.50
610;DHT22;292;48.800;9.216;2022-08-03T04:48:34;28.20;48.50
610;DHT22;292;48.800;9.216;2022-08-03T04:51:01;28.20;48.50
610;DHT22;292;48.800;9.216;2022-08-03T04:53:28;28.20;48.50
610;DHT22;292;48.800;9.216;2022-08-03T04:56:03;28.20;48.50
610;DHT22;292;48.800;9.216;2022-08-03T04:58:30;28.20;48.50
610;DHT22;292;48.800;9.216;2022-08-03T05:00:57;28.20;48.50
610;DHT22;292;48.800;9.216;2022-08-03T05:03:25;28.20;48.50
610;DHT22;292;48.800;9.216;2022-08-03T05:05:52;28.20;48.50
610;DHT22;292;48.800;9.216;2022-08-03T05:08:19;28.20;48.50
610;DHT22;292;48.800;9.216;2022-08-03T05:10:46;28.20;48.50
610;DHT22;292;48.800;9.216;2022-08-03T05:13:15;28.20;48.60
610;DHT22;292;48.800;9.216;2022-08-03T05:15:42;28.20;48.60
610;DHT22;292;48.800;9.216;2022-08-03T05:18:09;28.20;48.60
610;DHT22;292;48.800;9.216;2022-08-03T05:20:37;28.20;48.60
610;DHT22;292;48.800;9.216;2022-08-03T05:23:04;28.20;48.60
610;DHT22;292;48.800;9.216;2022-08-03T05:25:31;28.20;48.60
610;DHT22;292;48.800;9.216;2022-08-03T05:27:58;28.20;48.60
610;DHT22;292;48.800;9.216;2022-08-03T05:30:28;28.20;48.80
610;DHT22;292;48.800;9.216;2022-08-03T05:32:55;28.20;48.80
610;DHT22;292;48.800;9.216;2022-08-03T05:35:22;28.30;48.80
610;DHT22;292;48.800;9.216;2022-08-03T05:37:50;28.30;48.60
610;DHT22;292;48.800;9.216;2022-08-03T05:40:18;28.30;48.60
610;DHT22;292;48.800;9.216;2022-08-03T05:42:45;28.30;48.60
610;DHT22;292;48.800;9.216;2022-08-03T05:45:12;28.30;48.60
610;DHT22;292;48.800;9.216;2022-08-03T05:47:43;28.30;48.60
610;DHT22;292;48.800;9.216;2022-08-03T05:50:10;28.20;48.80
610;DHT22;292;48.800;9.216;2022-08-03T05:52:38;28.20;48.80
610;DHT22;292;48.800;9.216;2022-08-03T05:55:05;28.20;48.90
610;DHT22;292;48.800;9.216;2022-08-03T05:57:32;28.20;48.90
610;DHT22;292;48.800;9.216;2022-08-03T06:00:00;28.20;48.90
610;DHT22;292;48.800;9.216;2022-08-03T06:02:28;28.20;49.00
610;DHT22;292;48.800;9.216;2022-08-03T06:04:56;28.10;49.00
610;DHT22;292;48.800;9.216;2022-08-03T06:07:23;28.10;49.00
610;DHT22;292;48.800;9.216;2022-08-03T06:09:51;28.10;49.00
610;DHT22;292;48.800;9.216;2022-08-03T06:12:18;28.10;49.20
610;DHT22;292;48.800;9.216;2022-08-03T06:14:45;28.10;49.20
610;DHT22;292;48.800;9.216;2022-08-03T06:17:12;28.10;49.20
610;DHT22;292;48.800;9.216;2022-08-03T06:19:39;28.00;49.40
610;DHT22;292;48.800;9.216;2022-08-03T06:22:07;28.00;49.60
610;DHT22;292;48.800;9.216;2022-08-03T06:24:34;28.00;49.80
610;DHT22;292;48.800;9.216;2022-08-03T06:27:01;27.90;50.00
610;DHT22;292;48.800;9.216;2022-08-03T06:29:28;27.90;50.10
610;DHT22;292;48.800;9.216;2022-08-03T06:31:55;27.90;50.20
610;DHT22;292;48.800;9.216;2022-08-03T06:34:22;27.80;50.50
610;DHT22;292;48.800;9.216;2022-08-03T06:36:49;27.80;50.60
610;DHT22;292;48.800;9.216;2022-08-03T06:39:18;27.70;50.80
610;DHT22;292;48.800;9.216;2022-08-03T06:41:45;27.70;51.00
610;DHT22;292;48.800;9.216;2022-08-03T06:44:12;27.70;51.00
610;DHT22;292;48.800;9.216;2022-08-03T06:46:39;27.70;51.20
610;DHT22;292;48.800;9.216;2022-08-03T06:49:07;27.70;51.20
610;DHT22;292;48.800;9.216;2022-08-03T06:51:34;27.70;51.20
610;DHT22;292;48.800;9.216;2022-08-03T06:54:01;27.70;51.20
610;DHT22;292;48.800;9.216;2022-08-03T06:56:29;27.80;51.20
610;DHT22;292;48.800;9.216;2022-08-03T06:58:57;27.80;51.20
610;DHT22;292;48.800;9.216;2022-08-03T07:01:24;27.80;51.00
610;DHT22;292;48.800;9.216;2022-08-03T07:03:50;27.80;51.00
610;DHT22;292;48.800;9.216;2022-08-03T07:06:19;27.80;51.30
610;DHT22;292;48.800;9.216;2022-08-03T07:08:46;27.80;51.30
610;DHT22;292;48.800;9.216;2022-08-03T07:11:13;27.80;51.30
610;DHT22;292;48.800;9.216;2022-08-03T07:13:42;27.80;51.30
610;DHT22;292;48.800;9.216;2022-08-03T07:16:09;27.90;51.20
610;DHT22;292;48.800;9.216;2022-08-03T07:18:37;27.90;51.00
610;DHT22;292;48.800;9.216;2022-08-03T07:21:06;27.90;51.00
610;DHT22;292;48.800;9.216;2022-08-03T07:23:35;27.90;51.00
610;DHT22;292;48.800;9.216;2022-08-03T07:26:02;27.90;51.00
610;DHT22;292;48.800;9.216;2022-08-03T07:28:29;27.90;51.00
610;DHT22;292;48.800;9.216;2022-08-03T07:30:58;27.90;51.00
610;DHT22;292;48.800;9.216;2022-08-03T07:33:25;27.90;50.90
610;DHT22;292;48.800;9.216;2022-08-03T07:35:52;27.90;50.90
610;DHT22;292;48.800;9.216;2022-08-03T07:38:19;27.90;50.90
610;DHT22;292;48.800;9.216;2022-08-03T07:40:46;27.90;50.90
610;DHT22;292;48.800;9.216;2022-08-03T07:43:13;27.90;51.00
610;DHT22;292;48.800;9.216;2022-08-03T07:45:41;27.90;50.90
610;DHT22;292;48.800;9.216;2022-08-03T07:48:10;27.90;51.00
610;DHT22;292;48.800;9.216;2022-08-03T07:50:37;27.90;50.90
610;DHT22;292;48.800;9.216;2022-08-03T07:53:05;27.90;50.80
610;DHT22;292;48.800;9.216;2022-08-03T07:55:32;27.90;50.60
610;DHT22;292;48.800;9.216;2022-08-03T07:58:00;27.90;50.60
610;DHT22;292;48.800;9.216;2022-08-03T08:00:27;27.90;50.50
610;DHT22;292;48.800;9.216;2022-08-03T08:02:54;27.90;50.50
610;DHT22;292;48.800;9.216;2022-08-03T08:05:24;28.00;50.40
610;DHT22;292;48.800;9.216;2022-08-03T08:07:52;28.00;50.40
610;DHT22;292;48.800;9.216;2022-08-03T08:10:19;28.00;50.40
610;DHT22;292;48.800;9.216;2022-08-03T08:12:46;28.00;50.40
610;DHT22;292;48.800;9.216;2022-08-03T08:15:14;28.00;50.40
610;DHT22;292;48.800;9.216;2022-08-03T08:17:42;28.00;50.40
610;DHT22;292;48.800;9.216;2022-08-03T08:20:09;28.00;50.20
610;DHT22;292;48.800;9.216;2022-08-03T08:22:38;28.00;50.10
610;DHT22;292;48.800;9.216;2022-08-03T08:25:05;28.10;50.00
610;DHT22;292;48.800;9.216;2022-08-03T08:27:32;28.10;50.00
610;DHT22;292;48.800;9.216;2022-08-03T08:30:02;28.10;50.00
610;DHT22;292;48.800;9.216;2022-08-03T08:32:29;28.10;50.00
610;DHT22;292;48.800;9.216;2022-08-03T08:34:56;28.10;50.00
610;DHT22;292;48.800;9.216;2022-08-03T08:37:23;28.10;50.60
610;DHT22;292;48.800;9.216;2022-08-03T08:39:52;28.10;51.20
610;DHT22;292;48.800;9.216;2022-08-03T08:42:21;28.10;51.30
610;DHT22;292;48.800;9.216;2022-08-03T08:44:48;28.10;51.30
610;DHT22;292;48.800;9.216;2022-08-03T08:47:16;28.20;51.20
610;DHT22;292;48.800;9.216;2022-08-03T08:49:43;28.20;51.00
610;DHT22;292;48.800;9.216;2022-08-03T08:52:12;28.20;50.90
610;DHT22;292;48.800;9.216;2022-08-03T08:54:40;28.20;50.60
610;DHT22;292;48.800;9.216;2022-08-03T08:57:09;28.20;50.40
610;DHT22;292;48.800;9.216;2022-08-03T08:59:36;28.20;50.10
610;DHT22;292;48.800;9.216;2022-08-03T09:02:03;28.20;50.10
610;DHT22;292;48.800;9.216;2022-08-03T09:04:31;28.20;50.10
610;DHT22;292;48.800;9.216;2022-08-03T09:06:58;28.20;50.00
610;DHT22;292;48.800;9.216;2022-08-03T09:09:25;28.20;49.60
610;DHT22;292;48.800;9.216;2022-08-03T09:11:52;28.20;49.40
610;DHT22;292;48.800;9.216;2022-08-03T09:14:21;28.20;49.20
610;DHT22;292;48.800;9.216;2022-08-03T09:16:54;28.20;49.00
610;DHT22;292;48.800;9.216;2022-08-03T09:19:22;28.20;49.20
610;DHT22;292;48.800;9.216;2022-08-03T09:21:56;28.20;49.00
610;DHT22;292;48.800;9.216;2022-08-03T09:24:32;28.30;49.20
610;DHT22;292;48.800;9.216;2022-08-03T09:26:59;28.30;49.00
610;DHT22;292;48.800;9.216;2022-08-03T09:29:29;28.30;49.00
610;DHT22;292;48.800;9.216;2022-08-03T09:31:59;28.30;49.20
610;DHT22;292;48.800;9.216;2022-08-03T09:34:26;28.30;49.20
610;DHT22;292;48.800;9.216;2022-08-03T09:36:54;28.30;48.80
610;DHT22;292;48.800;9.216;2022-08-03T09:39:22;28.30;48.40
610;DHT22;292;48.800;9.216;2022-08-03T09:42:02;28.30;48.50
610;DHT22;292;48.800;9.216;2022-08-03T09:44:34;28.40;48.50
610;DHT22;292;48.800;9.216;2022-08-03T09:47:02;28.40;48.40
610;DHT22;292;48.800;9.216;2022-08-03T09:49:29;28.40;48.20
610;DHT22;292;48.800;9.216;2022-08-03T09:51:56;28.40;48.00
610;DHT22;292;48.800;9.216;2022-08-03T09:54:27;28.40;48.10
610;DHT22;292;48.800;9.216;2022-08-03T09:56:54;28.40;48.10
610;DHT22;292;48.800;9.216;2022-08-03T09:59:24;28.50;47.80
610;DHT22;292;48.800;9.216;2022-08-03T10:01:54;28.40;47.70
610;DHT22;292;48.800;9.216;2022-08-03T10:04:21;28.50;47.70
610;DHT22;292;48.800;9.216;2022-08-03T10:07:01;28.50;48.00
610;DHT22;292;48.800;9.216;2022-08-03T10:09:29;28.50;47.80
610;DHT22;292;48.800;9.216;2022-08-03T10:11:56;28.40;48.00
610;DHT22;292;48.800;9.216;2022-08-03T10:14:24;28.40;48.10
610;DHT22;292;48.800;9.216;2022-08-03T10:16:57;28.40;48.10
610;DHT22;292;48.800;9.216;2022-08-03T10:19:24;28.50;48.20
610;DHT22;292;48.800;9.216;2022-08-03T10:21:52;28.50;48.00
610;DHT22;292;48.800;9.216;2022-08-03T10:24:23;28.50;48.00
610;DHT22;292;48.800;9.216;2022-08-03T10:26:50;28.50;48.10
610;DHT22;292;48.800;9.216;2022-08-03T10:29:19;28.50;48.10
610;DHT22;292;48.800;9.216;2022-08-03T10:31:48;28.50;48.20
610;DHT22;292;48.800;9.216;2022-08-03T10:34:21;28.50;48.20
610;DHT22;292;48.800;9.216;2022-08-03T10:36:49;28.50;48.20
610;DHT22;292;48.800;9.216;2022-08-03T10:39:18;28.50;48.20
610;DHT22;292;48.800;9.216;2022-08-03T10:41:47;28.50;48.20
610;DHT22;292;48.800;9.216;2022-08-03T10:44:17;28.50;48.20
610;DHT22;292;48.800;9.216;2022-08-03T10:46:44;28.50;48.20
610;DHT22;292;48.800;9.216;2022-08-03T10:49:12;28.60;48.20
610;DHT22;292;48.800;9.216;2022-08-03T10:51:41;28.60;48.20
610;DHT22;292;48.800;9.216;2022-08-03T10:56:52;28.60;48.20
610;DHT22;292;48.800;9.216;2022-08-03T11:02:21;28.60;47.70
610;DHT22;292;48.800;9.216;2022-08-03T11:04:48;28.60;47.20
610;DHT22;292;48.800;9.216;2022-08-03T11:07:37;28.60;46.90
610;DHT22;292;48.800;9.216;2022-08-03T11:10:04;28.60;46.50
610;DHT22;292;48.800;9.216;2022-08-03T11:12:51;28.60;46.40
610;DHT22;292;48.800;9.216;2022-08-03T11:15:31;28.60;46.10
610;DHT22;292;48.800;9.216;2022-08-03T11:18:09;28.60;46.00
610;DHT22;292;48.800;9.216;2022-08-03T11:20:43;28.60;45.80
610;DHT22;292;48.800;9.216;2022-08-03T11:23:13;28.60;45.80
610;DHT22;292;48.800;9.216;2022-08-03T11:28:30;28.60;45.60
610;DHT22;292;48.800;9.216;2022-08-03T11:33:40;28.60;45.30
610;DHT22;292;48.800;9.216;2022-08-03T11:36:07;28.60;45.30
610;DHT22;292;48.800;9.216;2022-08-03T11:38:36;28.60;45.30
610;DHT22;292;48.800;9.216;2022-08-03T11:41:31;28.60;45.40
610;DHT22;292;48.800;9.216;2022-08-03T11:43:58;28.60;45.60
610;DHT22;292;48.800;9.216;2022-08-03T11:46:25;28.60;45.80
610;DHT22;292;48.800;9.216;2022-08-03T11:48:52;28.60;45.80
610;DHT22;292;48.800;9.216;2022-08-03T11:51:23;28.60;45.80
610;DHT22;292;48.800;9.216;2022-08-03T11:53:53;28.60;46.00
610;DHT22;292;48.800;9.216;2022-08-03T11:56:21;28.60;46.10
610;DHT22;292;48.800;9.216;2022-08-03T11:58:48;28.60;46.20
610;DHT22;292;48.800;9.216;2022-08-03T12:01:16;28.60;46.10
610;DHT22;292;48.800;9.216;2022-08-03T12:03:43;28.60;46.10
610;DHT22;292;48.800;9.216;2022-08-03T12:06:11;28.60;46.20
610;DHT22;292;48.800;9.216;2022-08-03T12:08:39;28.60;46.40
610;DHT22;292;48.800;9.216;2022-08-03T12:11:10;28.60;46.50
610;DHT22;292;48.800;9.216;2022-08-03T12:13:38;28.60;46.50
610;DHT22;292;48.800;9.216;2022-08-03T12:18:57;28.60;46.40
610;DHT22;292;48.800;9.216;2022-08-03T12:21:24;28.60;46.40
610;DHT22;292;48.800;9.216;2022-08-03T12:23:54;28.60;46.10
610;DHT22;292;48.800;9.216;2022-08-03T12:26:25;28.60;46.10
610;DHT22;292;48.800;9.216;2022-08-03T12:28:52;28.60;46.00
610;DHT22;292;48.800;9.216;2022-08-03T12:31:19;28.60;46.00
610;DHT22;292;48.800;9.216;2022-08-03T12:33:57;28.60;45.80
610;DHT22;292;48.800;9.216;2022-08-03T12:36:24;28.60;45.80
610;DHT22;292;48.800;9.216;2022-08-03T12:38:56;28.60;45.80
610;DHT22;292;48.800;9.216;2022-08-03T12:41:28;28.60;46.00
610;DHT22;292;48.800;9.216;2022-08-03T12:43:55;28.60;45.80
610;DHT22;292;48.800;9.216;2022-08-03T12:46:22;28.60;46.10
610;DHT22;292;48.800;9.216;2022-08-03T12:48:58;28.60;46.10
610;DHT22;292;48.800;9.216;2022-08-03T12:51:26;28.60;46.00
610;DHT22;292;48.800;9.216;2022-08-03T12:53:53;28.60;46.00
610;DHT22;292;48.800;9.216;2022-08-03T12:56:20;28.60;46.00
610;DHT22;292;48.800;9.216;2022-08-03T12:58:49;28.60;46.20
610;DHT22;292;48.800;9.216;2022-08-03T13:01:17;28.60;46.00
610;DHT22;292;48.800;9.216;2022-08-03T13:03:47;28.60;46.00
610;DHT22;292;48.800;9.216;2022-08-03T13:06:14;28.60;46.10
610;DHT22;292;48.800;9.216;2022-08-03T13:08:42;28.60;45.80
610;DHT22;292;48.800;9.216;2022-08-03T13:11:19;28.60;45.60
610;DHT22;292;48.800;9.216;2022-08-03T13:13:48;28.60;45.40
610;DHT22;292;48.800;9.216;2022-08-03T13:16:15;28.60;45.30
610;DHT22;292;48.800;9.216;2022-08-03T13:18:43;28.60;45.20
610;DHT22;292;48.800;9.216;2022-08-03T13:21:11;28.60;45.00
610;DHT22;292;48.800;9.216;2022-08-03T13:23:38;28.60;44.90
610;DHT22;292;48.800;9.216;2022-08-03T13:26:05;28.60;44.90
610;DHT22;292;48.800;9.216;2022-08-03T13:28:32;28.60;44.80
610;DHT22;292;48.800;9.216;2022-08-03T13:31:01;28.60;44.80
610;DHT22;292;48.800;9.216;2022-08-03T13:33:28;28.60;44.80
610;DHT22;292;48.800;9.216;2022-08-03T13:35:55;28.60;44.90
610;DHT22;292;48.800;9.216;2022-08-03T13:38:22;28.60;44.90
610;DHT22;292;48.800;9.216;2022-08-03T13:40:50;28.60;44.90
610;DHT22;292;48.800;9.216;2022-08-03T13:43:17;28.60;44.90
610;DHT22;292;48.800;9.216;2022-08-03T13:45:44;28.60;44.90
610;DHT22;292;48.800;9.216;2022-08-03T13:48:12;28.60;45.00
610;DHT22;292;48.800;9.216;2022-08-03T13:50:39;28.60;45.00
610;DHT22;292;48.800;9.216;2022-08-03T13:53:06;28.60;45.00
610;DHT22;292;48.800;9.216;2022-08-03T13:55:33;28.60;45.00
610;DHT22;292;48.800;9.216;2022-08-03T13:58:00;28.60;45.00
610;DHT22;292;48.800;9.216;2022-08-03T14:00:28;28.60;45.00
610;DHT22;292;48.800;9.216;2022-08-03T14:02:56;28.60;45.00
610;DHT22;292;48.800;9.216;2022-08-03T14:05:24;28.60;44.90
610;DHT22;292;48.800;9.216;2022-08-03T14:07:52;28.60;44.90
610;DHT22;292;48.800;9.216;2022-08-03T14:10:19;28.60;44.90
610;DHT22;292;48.800;9.216;2022-08-03T14:12:46;28.60;44.90
610;DHT22;292;48.800;9.216;2022-08-03T14:15:13;28.60;44.90
610;DHT22;292;48.800;9.216;2022-08-03T14:17:39;28.60;44.90
610;DHT22;292;48.800;9.216;2022-08-03T14:20:07;28.60;44.90
610;DHT22;292;48.800;9.216;2022-08-03T14:22:36;28.60;44.80
610;DHT22;292;48.800;9.216;2022-08-03T14:25:03;28.60;44.80
610;DHT22;292;48.800;9.216;2022-08-03T14:27:31;28.60;44.80
610;DHT22;292;48.800;9.216;2022-08-03T14:29:58;28.60;44.80
610;DHT22;292;48.800;9.216;2022-08-03T14:32:25;28.60;44.80
610;DHT22;292;48.800;9.216;2022-08-03T14:34:52;28.60;44.60
610;DHT22;292;48.800;9.216;2022-08-03T14:37:20;28.60;44.60
610;DHT22;292;48.800;9.216;2022-08-03T14:39:48;28.60;44.60
610;DHT22;292;48.800;9.216;2022-08-03T14:42:15;28.60;44.60
610;DHT22;292;48.800;9.216;2022-08-03T14:44:42;28.60;44.60
610;DHT22;292;48.800;9.216;2022-08-03T14:47:09;28.60;44.60
610;DHT22;292;48.800;9.216;2022-08-03T14:49:36;28.60;44.60
610;DHT22;292;48.800;9.216;2022-08-03T14:52:03;28.60;44.60
610;DHT22;292;48.800;9.216;2022-08-03T14:54:30;28.60;44.50
610;DHT22;292;48.800;9.216;2022-08-03T14:56:59;28.60;44.50
610;DHT22;292;48.800;9.216;2022-08-03T14:59:26;28.60;44.40
610;DHT22;292;48.800;9.216;2022-08-03T15:01:53;28.60;44.40
610;DHT22;292;48.800;9.216;2022-08-03T15:04:21;28.60;44.40
610;DHT22;292;48.800;9.216;2022-08-03T15:06:48;28.60;44.40
610;DHT22;292;48.800;9.216;2022-08-03T15:09:15;28.60;44.40
610;DHT22;292;48.800;9.216;2022-08-03T15:11:42;28.60;44.40
610;DHT22;292;48.800;9.216;2022-08-03T15:14:10;28.60;44.20
610;DHT22;292;48.800;9.216;2022-08-03T15:16:38;28.60;44.20
610;DHT22;292;48.800;9.216;2022-08-03T15:19:05;28.60;44.20
610;DHT22;292;48.800;9.216;2022-08-03T15:21:32;28.60;44.10
610;DHT22;292;48.800;9.216;2022-08-03T15:23:59;28.60;44.10
610;DHT22;292;48.800;9.216;2022-08-03T15:26:26;28.60;44.10
610;DHT22;292;48.800;9.216;2022-08-03T15:28:53;28.60;44.00
610;DHT22;292;48.800;9.216;2022-08-03T15:31:23;28.70;44.00
610;DHT22;292;48.800;9.216;2022-08-03T15:33:50;28.60;44.00
610;DHT22;292;48.800;9.216;2022-08-03T15:36:18;28.60;44.00
610;DHT22;292;48.800;9.216;2022-08-03T15:38:45;28.60;44.00
610;DHT22;292;48.800;9.216;2022-08-03T15:41:12;28.60;43.80
610;DHT22;292;48.800;9.216;2022-08-03T15:43:39;28.60;43.80
610;DHT22;292;48.800;9.216;2022-08-03T15:46:06;28.70;43.80
610;DHT22;292;48.800;9.216;2022-08-03T15:48:34;28.70;43.80
610;DHT22;292;48.800;9.216;2022-08-03T15:51:02;28.70;43.80
610;DHT22;292;48.800;9.216;2022-08-03T15:53:29;28.70;43.80
610;DHT22;292;48.800;9.216;2022-08-03T15:55:57;28.70;43.80
610;DHT22;292;48.800;9.216;2022-08-03T15:58:25;28.70;43.80
610;DHT22;292;48.800;9.216;2022-08-03T16:00:54;28.70;43.80
610;DHT22;292;48.800;9.216;2022-08-03T16:03:21;28.70;43.70
610;DHT22;292;48.800;9.216;2022-08-03T16:05:50;28.70;43.60
610;DHT22;292;48.800;9.216;2022-08-03T16:08:17;28.70;43.40
610;DHT22;292;48.800;9.216;2022-08-03T16:10:45;28.70;43.30
610;DHT22;292;48.800;9.216;2022-08-03T16:13:12;28.70;43.20
610;DHT22;292;48.800;9.216;2022-08-03T16:15:39;28.70;43.00
610;DHT22;292;48.800;9.216;2022-08-03T16:18:06;28.70;42.90
610;DHT22;292;48.800;9.216;2022-08-03T16:20:33;28.70;42.90
610;DHT22;292;48.800;9.216;2022-08-03T16:23:02;28.70;42.80
610;DHT22;292;48.800;9.216;2022-08-03T16:25:30;28.70;42.60
610;DHT22;292;48.800;9.216;2022-08-03T16:27:57;28.70;42.60
610;DHT22;292;48.800;9.216;2022-08-03T16:30:24;28.70;42.60
610;DHT22;292;48.800;9.216;2022-08-03T16:32:51;28.70;42.50
610;DHT22;292;48.800;9.216;2022-08-03T16:35:18;28.70;42.50
610;DHT22;292;48.800;9.216;2022-08-03T16:37:45;28.70;42.50
610;DHT22;292;48.800;9.216;2022-08-03T16:40:13;28.70;42.40
610;DHT22;292;48.800;9.216;2022-08-03T16:42:40;28.80;42.20
610;DHT22;292;48.800;9.216;2022-08-03T16:45:08;28.70;42.20
610;DHT22;292;48.800;9.216;2022-08-03T16:47:35;28.80;42.20
610;DHT22;292;48.800;9.216;2022-08-03T16:50:04;28.70;42.20
610;DHT22;292;48.800;9.216;2022-08-03T16:52:31;28.70;42.10
610;DHT22;292;48.800;9.216;2022-08-03T16:54:58;28.80;42.20
610;DHT22;292;48.800;9.216;2022-08-03T16:57:27;28.70;42.20